Fazenda Brumado Airport


Codes: SDFB/0
Name: Fazenda Brumado Airport
City: Barretos
Country: Brazil
Elevation: 1755 ft.

Photos at Fazenda Brumado Airport


   Photos courtesy of SpottingLog. You can add your own sightings and photos by signing up for a free trial today.



No photos found.

Weather at Fazenda Brumado Airport


Time (UTC)DescriptionTempratureWindCloud coverageVisibilityPressureHumidity
13-Jun-2024 03:00Clear Sky20°C4 mph, NE0%10000m1017hPa35%
13-Jun-2024 06:00Clear Sky18°C4 mph, E0%10000m1017hPa42%
13-Jun-2024 09:00Clear Sky15°C7 mph, NE0%10000m1018hPa51%
13-Jun-2024 12:00Clear Sky22°C13 mph, NE0%10000m1019hPa35%
13-Jun-2024 15:00Clear Sky30°C13 mph, NE0%10000m1017hPa21%
13-Jun-2024 18:00Clear Sky31°C11 mph, NE0%10000m1014hPa19%
13-Jun-2024 21:00Clear Sky24°C7 mph, NE0%10000m1014hPa30%
14-Jun-2024 00:00Clear Sky21°C7 mph, NE0%10000m1016hPa41%
14-Jun-2024 03:00Clear Sky18°C7 mph, E0%10000m1018hPa52%
14-Jun-2024 06:00Clear Sky17°C7 mph, NE0%10000m1017hPa56%
14-Jun-2024 09:00Clear Sky16°C7 mph, NE0%10000m1018hPa55%
14-Jun-2024 12:00Clear Sky23°C16 mph, NE0%10000m1019hPa36%
14-Jun-2024 15:00Clear Sky31°C16 mph, NE0%10000m1017hPa28%
14-Jun-2024 18:00Clear Sky32°C11 mph, NE0%10000m1014hPa23%
14-Jun-2024 21:00Clear Sky25°C9 mph, NE0%10000m1014hPa34%
15-Jun-2024 00:00Clear Sky22°C7 mph, NE0%10000m1017hPa43%
15-Jun-2024 03:00Clear Sky19°C9 mph, E0%10000m1018hPa54%
15-Jun-2024 06:00Clear Sky18°C9 mph, NE0%10000m1018hPa60%
15-Jun-2024 09:00Clear Sky18°C9 mph, NE0%10000m1019hPa62%
15-Jun-2024 12:00Clear Sky23°C13 mph, NE0%10000m1021hPa49%
15-Jun-2024 15:00Clear Sky30°C11 mph, NE0%10000m1019hPa29%
15-Jun-2024 18:00Clear Sky32°C7 mph, NE0%10000m1016hPa23%
15-Jun-2024 21:00Clear Sky25°C4 mph, E0%10000m1016hPa34%
16-Jun-2024 00:00Clear Sky22°C7 mph, E0%10000m1017hPa40%
16-Jun-2024 03:00Clear Sky19°C4 mph, NE0%10000m1018hPa49%
16-Jun-2024 06:00Clear Sky18°C4 mph, NE0%10000m1017hPa58%
16-Jun-2024 09:00Clear Sky16°C7 mph, NE0%10000m1018hPa61%
16-Jun-2024 12:00Clear Sky23°C13 mph, NE0%10000m1019hPa46%
16-Jun-2024 15:00Clear Sky30°C11 mph, NE0%10000m1017hPa26%
16-Jun-2024 18:00Clear Sky32°C9 mph, N0%10000m1013hPa21%
16-Jun-2024 21:00Clear Sky25°C4 mph, NE2%10000m1013hPa31%
17-Jun-2024 00:00Clear Sky21°C4 mph, N1%10000m1015hPa41%
17-Jun-2024 03:00Clear Sky19°C7 mph, NE2%10000m1015hPa50%
17-Jun-2024 06:00Clear Sky17°C7 mph, NE1%10000m1015hPa55%
17-Jun-2024 09:00Clear Sky16°C7 mph, NE2%10000m1015hPa55%
17-Jun-2024 12:00Clear Sky23°C9 mph, NE1%10000m1016hPa33%
17-Jun-2024 15:00Clear Sky31°C9 mph, N0%10000m1014hPa16%
17-Jun-2024 18:00Clear Sky32°C7 mph, N0%10000m1010hPa13%
17-Jun-2024 21:00Clear Sky25°C4 mph, NE0%10000m1011hPa21%
18-Jun-2024 00:00Clear Sky21°C4 mph, NE0%10000m1012hPa29%